sensor_id;sensor_type;location;lat;lon;timestamp;P1;durP1;ratioP1;P2;durP2;ratioP2
17201;SDS011;8717;53.588;10.176;2023-06-26T00:00:43;9.35;;;8.55;;
17201;SDS011;8717;53.588;10.176;2023-06-26T00:03:12;10.13;;;8.98;;
17201;SDS011;8717;53.588;10.176;2023-06-26T00:05:40;9.48;;;8.68;;
17201;SDS011;8717;53.588;10.176;2023-06-26T00:08:08;9.55;;;8.65;;
17201;SDS011;8717;53.588;10.176;2023-06-26T00:10:35;10.18;;;8.38;;
17201;SDS011;8717;53.588;10.176;2023-06-26T00:13:02;10.40;;;9.50;;
17201;SDS011;8717;53.588;10.176;2023-06-26T00:15:28;9.88;;;8.82;;
17201;SDS011;8717;53.588;10.176;2023-06-26T00:17:56;9.70;;;8.88;;
17201;SDS011;8717;53.588;10.176;2023-06-26T00:20:23;10.07;;;9.07;;
17201;SDS011;8717;53.588;10.176;2023-06-26T00:22:51;9.40;;;8.50;;
17201;SDS011;8717;53.588;10.176;2023-06-26T00:25:20;9.93;;;9.02;;
17201;SDS011;8717;53.588;10.176;2023-06-26T00:27:47;9.55;;;8.57;;
17201;SDS011;8717;53.588;10.176;2023-06-26T00:30:13;9.38;;;8.57;;
17201;SDS011;8717;53.588;10.176;2023-06-26T00:32:40;9.82;;;8.93;;
17201;SDS011;8717;53.588;10.176;2023-06-26T00:35:07;10.30;;;9.25;;
17201;SDS011;8717;53.588;10.176;2023-06-26T00:37:33;9.52;;;8.73;;
17201;SDS011;8717;53.588;10.176;2023-06-26T00:40:00;10.38;;;9.38;;
17201;SDS011;8717;53.588;10.176;2023-06-26T00:42:29;10.07;;;9.13;;
17201;SDS011;8717;53.588;10.176;2023-06-26T00:44:56;9.85;;;8.95;;
17201;SDS011;8717;53.588;10.176;2023-06-26T00:47:23;10.13;;;8.98;;
17201;SDS011;8717;53.588;10.176;2023-06-26T00:49:51;10.38;;;9.45;;
17201;SDS011;8717;53.588;10.176;2023-06-26T00:52:18;10.40;;;9.40;;
17201;SDS011;8717;53.588;10.176;2023-06-26T00:54:46;10.15;;;9.15;;
17201;SDS011;8717;53.588;10.176;2023-06-26T00:57:16;9.10;;;8.30;;
17201;SDS011;8717;53.588;10.176;2023-06-26T00:59:44;9.95;;;9.07;;
17201;SDS011;8717;53.588;10.176;2023-06-26T01:02:11;10.15;;;9.15;;
17201;SDS011;8717;53.588;10.176;2023-06-26T01:04:45;9.80;;;8.80;;
17201;SDS011;8717;53.588;10.176;2023-06-26T01:07:12;10.48;;;9.48;;
17201;SDS011;8717;53.588;10.176;2023-06-26T01:09:41;11.25;;;9.02;;
17201;SDS011;8717;53.588;10.176;2023-06-26T01:12:08;10.52;;;9.52;;
17201;SDS011;8717;53.588;10.176;2023-06-26T01:14:35;10.57;;;8.98;;
17201;SDS011;8717;53.588;10.176;2023-06-26T01:17:04;10.80;;;9.80;;
17201;SDS011;8717;53.588;10.176;2023-06-26T01:19:31;9.88;;;8.98;;
17201;SDS011;8717;53.588;10.176;2023-06-26T01:22:00;11.00;;;9.73;;
17201;SDS011;8717;53.588;10.176;2023-06-26T01:24:31;9.55;;;8.75;;
17201;SDS011;8717;53.588;10.176;2023-06-26T01:27:03;9.82;;;8.93;;
17201;SDS011;8717;53.588;10.176;2023-06-26T01:29:32;10.18;;;9.20;;
17201;SDS011;8717;53.588;10.176;2023-06-26T01:31:59;9.50;;;8.68;;
17201;SDS011;8717;53.588;10.176;2023-06-26T01:34:27;10.18;;;9.18;;
17201;SDS011;8717;53.588;10.176;2023-06-26T01:36:55;9.65;;;8.73;;
17201;SDS011;8717;53.588;10.176;2023-06-26T01:39:22;9.80;;;8.70;;
17201;SDS011;8717;53.588;10.176;2023-06-26T01:41:49;10.05;;;9.00;;
17201;SDS011;8717;53.588;10.176;2023-06-26T01:44:25;10.50;;;9.50;;
17201;SDS011;8717;53.588;10.176;2023-06-26T01:46:57;10.30;;;9.18;;
17201;SDS011;8717;53.588;10.176;2023-06-26T01:49:29;10.57;;;9.57;;
17201;SDS011;8717;53.588;10.176;2023-06-26T01:52:03;10.10;;;9.10;;
17201;SDS011;8717;53.588;10.176;2023-06-26T01:54:37;9.77;;;8.82;;
17201;SDS011;8717;53.588;10.176;2023-06-26T01:57:08;11.35;;;9.00;;
17201;SDS011;8717;53.588;10.176;2023-06-26T01:59:39;10.25;;;8.98;;
17201;SDS011;8717;53.588;10.176;2023-06-26T02:02:08;9.68;;;8.77;;
17201;SDS011;8717;53.588;10.176;2023-06-26T02:04:36;9.52;;;8.73;;
17201;SDS011;8717;53.588;10.176;2023-06-26T02:07:04;10.73;;;9.57;;
17201;SDS011;8717;53.588;10.176;2023-06-26T02:09:31;9.85;;;8.95;;
17201;SDS011;8717;53.588;10.176;2023-06-26T02:11:58;9.55;;;8.63;;
17201;SDS011;8717;53.588;10.176;2023-06-26T02:14:25;9.48;;;8.57;;
17201;SDS011;8717;53.588;10.176;2023-06-26T02:16:54;9.85;;;8.55;;
17201;SDS011;8717;53.588;10.176;2023-06-26T02:19:21;9.57;;;8.60;;
17201;SDS011;8717;53.588;10.176;2023-06-26T02:21:47;9.48;;;8.05;;
17201;SDS011;8717;53.588;10.176;2023-06-26T02:24:15;9.85;;;8.80;;
17201;SDS011;8717;53.588;10.176;2023-06-26T02:26:42;9.57;;;8.60;;
17201;SDS011;8717;53.588;10.176;2023-06-26T02:29:10;10.02;;;9.02;;
17201;SDS011;8717;53.588;10.176;2023-06-26T02:31:39;9.45;;;8.23;;
17201;SDS011;8717;53.588;10.176;2023-06-26T02:34:07;11.45;;;8.57;;
17201;SDS011;8717;53.588;10.176;2023-06-26T02:36:34;9.32;;;8.50;;
17201;SDS011;8717;53.588;10.176;2023-06-26T02:39:04;8.88;;;8.05;;
17201;SDS011;8717;53.588;10.176;2023-06-26T02:41:32;9.50;;;8.52;;
17201;SDS011;8717;53.588;10.176;2023-06-26T02:43:59;9.80;;;8.77;;
17201;SDS011;8717;53.588;10.176;2023-06-26T02:46:27;8.95;;;8.15;;
17201;SDS011;8717;53.588;10.176;2023-06-26T02:48:54;10.13;;;9.00;;
17201;SDS011;8717;53.588;10.176;2023-06-26T02:51:23;8.98;;;8.18;;
17201;SDS011;8717;53.588;10.176;2023-06-26T02:53:50;8.95;;;8.15;;
17201;SDS011;8717;53.588;10.176;2023-06-26T02:56:17;11.07;;;8.50;;
17201;SDS011;8717;53.588;10.176;2023-06-26T02:58:44;9.10;;;8.05;;
17201;SDS011;8717;53.588;10.176;2023-06-26T03:01:11;10.95;;;8.18;;
17201;SDS011;8717;53.588;10.176;2023-06-26T03:03:40;9.27;;;8.38;;
17201;SDS011;8717;53.588;10.176;2023-06-26T03:06:12;8.70;;;7.80;;
17201;SDS011;8717;53.588;10.176;2023-06-26T03:08:41;9.55;;;8.30;;
17201;SDS011;8717;53.588;10.176;2023-06-26T03:11:08;9.00;;;7.80;;
17201;SDS011;8717;53.588;10.176;2023-06-26T03:13:37;10.65;;;8.32;;
17201;SDS011;8717;53.588;10.176;2023-06-26T03:16:04;10.85;;;8.38;;
17201;SDS011;8717;53.588;10.176;2023-06-26T03:18:31;9.50;;;8.50;;
17201;SDS011;8717;53.588;10.176;2023-06-26T03:20:58;8.52;;;7.72;;
17201;SDS011;8717;53.588;10.176;2023-06-26T03:23:25;9.45;;;8.55;;
17201;SDS011;8717;53.588;10.176;2023-06-26T03:25:54;10.00;;;8.63;;
17201;SDS011;8717;53.588;10.176;2023-06-26T03:28:24;8.70;;;7.90;;
17201;SDS011;8717;53.588;10.176;2023-06-26T03:30:51;10.63;;;7.85;;
17201;SDS011;8717;53.588;10.176;2023-06-26T03:33:18;9.07;;;8.18;;
17201;SDS011;8717;53.588;10.176;2023-06-26T03:35:45;8.48;;;7.60;;
17201;SDS011;8717;53.588;10.176;2023-06-26T03:38:13;11.07;;;8.20;;
17201;SDS011;8717;53.588;10.176;2023-06-26T03:40:42;8.63;;;7.82;;
17201;SDS011;8717;53.588;10.176;2023-06-26T03:43:10;9.93;;;8.40;;
17201;SDS011;8717;53.588;10.176;2023-06-26T03:45:44;8.50;;;7.63;;
17201;SDS011;8717;53.588;10.176;2023-06-26T03:48:11;10.07;;;7.70;;
17201;SDS011;8717;53.588;10.176;2023-06-26T03:50:39;8.52;;;7.47;;
17201;SDS011;8717;53.588;10.176;2023-06-26T03:53:06;8.73;;;7.82;;
17201;SDS011;8717;53.588;10.176;2023-06-26T03:55:32;8.63;;;7.22;;
17201;SDS011;8717;53.588;10.176;2023-06-26T03:57:59;8.95;;;8.05;;
17201;SDS011;8717;53.588;10.176;2023-06-26T04:00:27;11.10;;;7.55;;
17201;SDS011;8717;53.588;10.176;2023-06-26T04:02:54;8.75;;;7.95;;
17201;SDS011;8717;53.588;10.176;2023-06-26T04:05:22;8.75;;;7.82;;
17201;SDS011;8717;53.588;10.176;2023-06-26T04:07:49;8.70;;;7.50;;
17201;SDS011;8717;53.588;10.176;2023-06-26T04:10:17;8.20;;;7.22;;
17201;SDS011;8717;53.588;10.176;2023-06-26T04:12:46;8.68;;;7.18;;
17201;SDS011;8717;53.588;10.176;2023-06-26T04:15:14;9.32;;;7.75;;
17201;SDS011;8717;53.588;10.176;2023-06-26T04:17:42;8.32;;;7.57;;
17201;SDS011;8717;53.588;10.176;2023-06-26T04:20:08;7.97;;;6.97;;
17201;SDS011;8717;53.588;10.176;2023-06-26T04:22:35;8.90;;;8.00;;
17201;SDS011;8717;53.588;10.176;2023-06-26T04:25:02;8.40;;;7.60;;
17201;SDS011;8717;53.588;10.176;2023-06-26T04:27:29;8.68;;;7.60;;
17201;SDS011;8717;53.588;10.176;2023-06-26T04:29:56;7.80;;;7.05;;
17201;SDS011;8717;53.588;10.176;2023-06-26T04:32:23;8.82;;;7.97;;
17201;SDS011;8717;53.588;10.176;2023-06-26T04:34:51;10.05;;;8.23;;
17201;SDS011;8717;53.588;10.176;2023-06-26T04:37:18;9.38;;;7.55;;
17201;SDS011;8717;53.588;10.176;2023-06-26T04:39:45;8.10;;;6.85;;
17201;SDS011;8717;53.588;10.176;2023-06-26T04:42:12;8.55;;;7.60;;
17201;SDS011;8717;53.588;10.176;2023-06-26T04:44:38;9.23;;;7.28;;
17201;SDS011;8717;53.588;10.176;2023-06-26T04:47:06;9.68;;;7.50;;
17201;SDS011;8717;53.588;10.176;2023-06-26T04:49:32;7.80;;;7.10;;
17201;SDS011;8717;53.588;10.176;2023-06-26T04:52:00;8.15;;;7.38;;
17201;SDS011;8717;53.588;10.176;2023-06-26T04:54:28;8.13;;;7.32;;
17201;SDS011;8717;53.588;10.176;2023-06-26T04:56:54;9.10;;;7.50;;
17201;SDS011;8717;53.588;10.176;2023-06-26T04:59:21;8.93;;;7.65;;
17201;SDS011;8717;53.588;10.176;2023-06-26T05:01:48;8.82;;;7.40;;
17201;SDS011;8717;53.588;10.176;2023-06-26T05:04:15;7.75;;;6.95;;
17201;SDS011;8717;53.588;10.176;2023-06-26T05:06:42;8.15;;;7.35;;
17201;SDS011;8717;53.588;10.176;2023-06-26T05:09:11;7.45;;;6.70;;
17201;SDS011;8717;53.588;10.176;2023-06-26T05:11:38;7.80;;;7.00;;
17201;SDS011;8717;53.588;10.176;2023-06-26T05:14:04;8.50;;;6.90;;
17201;SDS011;8717;53.588;10.176;2023-06-26T05:16:32;7.97;;;6.68;;
17201;SDS011;8717;53.588;10.176;2023-06-26T05:19:00;9.18;;;7.32;;
17201;SDS011;8717;53.588;10.176;2023-06-26T05:21:27;7.43;;;6.50;;
17201;SDS011;8717;53.588;10.176;2023-06-26T05:23:56;7.90;;;6.93;;
17201;SDS011;8717;53.588;10.176;2023-06-26T05:26:25;8.30;;;6.60;;
17201;SDS011;8717;53.588;10.176;2023-06-26T05:28:53;8.23;;;7.43;;
17201;SDS011;8717;53.588;10.176;2023-06-26T05:31:21;8.25;;;6.80;;
17201;SDS011;8717;53.588;10.176;2023-06-26T05:33:48;7.60;;;6.88;;
17201;SDS011;8717;53.588;10.176;2023-06-26T05:36:16;7.35;;;6.65;;
17201;SDS011;8717;53.588;10.176;2023-06-26T05:38:46;9.10;;;7.15;;
17201;SDS011;8717;53.588;10.176;2023-06-26T05:41:15;7.50;;;6.70;;
17201;SDS011;8717;53.588;10.176;2023-06-26T05:43:44;7.68;;;6.63;;
17201;SDS011;8717;53.588;10.176;2023-06-26T05:46:11;6.88;;;6.18;;
17201;SDS011;8717;53.588;10.176;2023-06-26T05:48:38;7.43;;;6.60;;
17201;SDS011;8717;53.588;10.176;2023-06-26T05:51:06;7.57;;;6.85;;
17201;SDS011;8717;53.588;10.176;2023-06-26T05:53:33;6.78;;;6.10;;
17201;SDS011;8717;53.588;10.176;2023-06-26T05:56:01;7.55;;;5.95;;
17201;SDS011;8717;53.588;10.176;2023-06-26T05:58:28;8.32;;;6.10;;
17201;SDS011;8717;53.588;10.176;2023-06-26T06:00:57;8.57;;;6.43;;
17201;SDS011;8717;53.588;10.176;2023-06-26T06:03:24;8.40;;;5.93;;
17201;SDS011;8717;53.588;10.176;2023-06-26T06:05:51;7.25;;;6.55;;
17201;SDS011;8717;53.588;10.176;2023-06-26T06:08:18;7.70;;;6.57;;
17201;SDS011;8717;53.588;10.176;2023-06-26T06:10:44;8.15;;;6.35;;
17201;SDS011;8717;53.588;10.176;2023-06-26T06:13:11;8.60;;;6.70;;
17201;SDS011;8717;53.588;10.176;2023-06-26T06:15:38;7.90;;;6.32;;
17201;SDS011;8717;53.588;10.176;2023-06-26T06:18:06;6.40;;;5.72;;
17201;SDS011;8717;53.588;10.176;2023-06-26T06:20:32;7.40;;;6.20;;
17201;SDS011;8717;53.588;10.176;2023-06-26T06:22:59;7.20;;;6.35;;
17201;SDS011;8717;53.588;10.176;2023-06-26T06:25:26;7.05;;;6.07;;
17201;SDS011;8717;53.588;10.176;2023-06-26T06:27:52;6.80;;;6.10;;
17201;SDS011;8717;53.588;10.176;2023-06-26T06:30:19;7.72;;;6.28;;
17201;SDS011;8717;53.588;10.176;2023-06-26T06:32:46;7.15;;;6.03;;
17201;SDS011;8717;53.588;10.176;2023-06-26T06:35:16;6.95;;;6.25;;
17201;SDS011;8717;53.588;10.176;2023-06-26T06:37:43;6.40;;;5.65;;
17201;SDS011;8717;53.588;10.176;2023-06-26T06:40:10;7.82;;;6.05;;
17201;SDS011;8717;53.588;10.176;2023-06-26T06:42:37;6.78;;;5.80;;
17201;SDS011;8717;53.588;10.176;2023-06-26T06:45:04;6.47;;;5.88;;
17201;SDS011;8717;53.588;10.176;2023-06-26T06:47:31;6.78;;;5.97;;
17201;SDS011;8717;53.588;10.176;2023-06-26T06:49:59;7.03;;;6.03;;
17201;SDS011;8717;53.588;10.176;2023-06-26T06:52:34;6.60;;;6.00;;
17201;SDS011;8717;53.588;10.176;2023-06-26T06:55:01;7.40;;;6.32;;
17201;SDS011;8717;53.588;10.176;2023-06-26T06:57:32;6.32;;;5.72;;
17201;SDS011;8717;53.588;10.176;2023-06-26T07:00:01;6.45;;;5.85;;
17201;SDS011;8717;53.588;10.176;2023-06-26T07:02:29;6.72;;;6.00;;
17201;SDS011;8717;53.588;10.176;2023-06-26T07:04:56;8.18;;;6.22;;
17201;SDS011;8717;53.588;10.176;2023-06-26T07:07:22;9.40;;;6.00;;
17201;SDS011;8717;53.588;10.176;2023-06-26T07:09:50;7.05;;;6.35;;
17201;SDS011;8717;53.588;10.176;2023-06-26T07:12:17;6.72;;;6.00;;
17201;SDS011;8717;53.588;10.176;2023-06-26T07:14:44;6.20;;;5.60;;
17201;SDS011;8717;53.588;10.176;2023-06-26T07:17:10;5.70;;;5.20;;
17201;SDS011;8717;53.588;10.176;2023-06-26T07:19:37;6.30;;;5.47;;
17201;SDS011;8717;53.588;10.176;2023-06-26T07:22:04;6.85;;;5.90;;
17201;SDS011;8717;53.588;10.176;2023-06-26T07:24:30;6.40;;;5.78;;
17201;SDS011;8717;53.588;10.176;2023-06-26T07:26:59;7.28;;;5.70;;
17201;SDS011;8717;53.588;10.176;2023-06-26T07:29:25;6.07;;;5.47;;
17201;SDS011;8717;53.588;10.176;2023-06-26T07:31:52;6.07;;;5.47;;
17201;SDS011;8717;53.588;10.176;2023-06-26T07:34:19;6.18;;;5.35;;
17201;SDS011;8717;53.588;10.176;2023-06-26T07:36:45;6.80;;;6.10;;
17201;SDS011;8717;53.588;10.176;2023-06-26T07:39:12;6.22;;;5.40;;
17201;SDS011;8717;53.588;10.176;2023-06-26T07:41:39;6.78;;;5.40;;
17201;SDS011;8717;53.588;10.176;2023-06-26T07:44:07;7.95;;;6.10;;
17201;SDS011;8717;53.588;10.176;2023-06-26T07:46:33;6.38;;;5.63;;
17201;SDS011;8717;53.588;10.176;2023-06-26T07:49:00;6.88;;;5.30;;
17201;SDS011;8717;53.588;10.176;2023-06-26T07:51:27;5.95;;;5.45;;
17201;SDS011;8717;53.588;10.176;2023-06-26T07:56:25;6.80;;;6.10;;
17201;SDS011;8717;53.588;10.176;2023-06-26T07:58:51;8.10;;;5.88;;
17201;SDS011;8717;53.588;10.176;2023-06-26T08:01:19;5.95;;;5.40;;
17201;SDS011;8717;53.588;10.176;2023-06-26T08:03:46;7.53;;;5.72;;
17201;SDS011;8717;53.588;10.176;2023-06-26T08:06:13;6.38;;;5.78;;
17201;SDS011;8717;53.588;10.176;2023-06-26T08:08:39;6.65;;;5.22;;
17201;SDS011;8717;53.588;10.176;2023-06-26T08:11:06;6.93;;;5.35;;
17201;SDS011;8717;53.588;10.176;2023-06-26T08:13:33;6.68;;;5.32;;
17201;SDS011;8717;53.588;10.176;2023-06-26T08:16:00;7.18;;;5.82;;
17201;SDS011;8717;53.588;10.176;2023-06-26T08:18:28;6.82;;;5.53;;
17201;SDS011;8717;53.588;10.176;2023-06-26T08:20:55;6.38;;;5.78;;
17201;SDS011;8717;53.588;10.176;2023-06-26T08:23:21;8.35;;;6.07;;
17201;SDS011;8717;53.588;10.176;2023-06-26T08:25:49;6.53;;;5.60;;
17201;SDS011;8717;53.588;10.176;2023-06-26T08:28:16;6.68;;;6.07;;
17201;SDS011;8717;53.588;10.176;2023-06-26T08:30:43;6.00;;;5.30;;
17201;SDS011;8717;53.588;10.176;2023-06-26T08:33:09;5.90;;;5.20;;
17201;SDS011;8717;53.588;10.176;2023-06-26T08:35:38;6.72;;;6.13;;
17201;SDS011;8717;53.588;10.176;2023-06-26T08:38:05;6.53;;;5.93;;
17201;SDS011;8717;53.588;10.176;2023-06-26T08:40:31;6.80;;;6.20;;
17201;SDS011;8717;53.588;10.176;2023-06-26T08:42:58;7.32;;;6.13;;
17201;SDS011;8717;53.588;10.176;2023-06-26T08:45:25;6.38;;;5.78;;
17201;SDS011;8717;53.588;10.176;2023-06-26T08:47:53;9.13;;;5.90;;
17201;SDS011;8717;53.588;10.176;2023-06-26T08:50:21;7.03;;;6.13;;
17201;SDS011;8717;53.588;10.176;2023-06-26T08:52:53;7.88;;;5.80;;
17201;SDS011;8717;53.588;10.176;2023-06-26T08:55:26;6.78;;;6.18;;
17201;SDS011;8717;53.588;10.176;2023-06-26T08:57:54;7.40;;;5.88;;
17201;SDS011;8717;53.588;10.176;2023-06-26T09:00:21;6.30;;;5.70;;
17201;SDS011;8717;53.588;10.176;2023-06-26T09:02:49;6.78;;;6.18;;
17201;SDS011;8717;53.588;10.176;2023-06-26T09:05:15;6.70;;;5.78;;
17201;SDS011;8717;53.588;10.176;2023-06-26T09:07:42;6.82;;;6.20;;
17201;SDS011;8717;53.588;10.176;2023-06-26T09:10:10;7.32;;;6.63;;
17201;SDS011;8717;53.588;10.176;2023-06-26T09:12:37;6.43;;;5.82;;
17201;SDS011;8717;53.588;10.176;2023-06-26T09:15:04;7.03;;;6.03;;
17201;SDS011;8717;53.588;10.176;2023-06-26T09:17:33;10.02;;;6.18;;
17201;SDS011;8717;53.588;10.176;2023-06-26T09:20:05;6.65;;;5.88;;
17201;SDS011;8717;53.588;10.176;2023-06-26T09:22:36;6.78;;;6.15;;
17201;SDS011;8717;53.588;10.176;2023-06-26T09:25:04;8.27;;;6.65;;
17201;SDS011;8717;53.588;10.176;2023-06-26T09:27:33;8.10;;;7.22;;
17201;SDS011;8717;53.588;10.176;2023-06-26T09:30:01;7.63;;;7.00;;
17201;SDS011;8717;53.588;10.176;2023-06-26T09:32:28;7.70;;;6.88;;
17201;SDS011;8717;53.588;10.176;2023-06-26T09:34:55;8.70;;;7.85;;
17201;SDS011;8717;53.588;10.176;2023-06-26T09:37:21;10.18;;;7.32;;
17201;SDS011;8717;53.588;10.176;2023-06-26T09:39:50;8.88;;;8.05;;
17201;SDS011;8717;53.588;10.176;2023-06-26T09:42:17;10.63;;;7.75;;
17201;SDS011;8717;53.588;10.176;2023-06-26T09:44:45;9.10;;;8.30;;
17201;SDS011;8717;53.588;10.176;2023-06-26T09:47:12;9.13;;;8.13;;
17201;SDS011;8717;53.588;10.176;2023-06-26T09:49:42;9.93;;;8.45;;
17201;SDS011;8717;53.588;10.176;2023-06-26T09:52:09;9.40;;;8.60;;
17201;SDS011;8717;53.588;10.176;2023-06-26T09:54:36;11.20;;;9.00;;
17201;SDS011;8717;53.588;10.176;2023-06-26T09:57:09;9.35;;;8.18;;
17201;SDS011;8717;53.588;10.176;2023-06-26T09:59:36;9.43;;;8.00;;
17201;SDS011;8717;53.588;10.176;2023-06-26T10:02:04;17.95;;;8.48;;
17201;SDS011;8717;53.588;10.176;2023-06-26T10:04:31;11.88;;;7.85;;
17201;SDS011;8717;53.588;10.176;2023-06-26T10:06:58;9.80;;;7.50;;
17201;SDS011;8717;53.588;10.176;2023-06-26T10:09:28;10.40;;;8.82;;
17201;SDS011;8717;53.588;10.176;2023-06-26T10:11:57;8.93;;;7.60;;
17201;SDS011;8717;53.588;10.176;2023-06-26T10:14:26;10.77;;;8.60;;
17201;SDS011;8717;53.588;10.176;2023-06-26T10:16:57;9.65;;;8.48;;
17201;SDS011;8717;53.588;10.176;2023-06-26T10:19:27;9.43;;;8.30;;
17201;SDS011;8717;53.588;10.176;2023-06-26T10:21:55;11.55;;;9.05;;
17201;SDS011;8717;53.588;10.176;2023-06-26T10:24:24;9.10;;;8.20;;
17201;SDS011;8717;53.588;10.176;2023-06-26T10:26:55;12.85;;;10.43;;
17201;SDS011;8717;53.588;10.176;2023-06-26T10:29:25;15.82;;;11.43;;
17201;SDS011;8717;53.588;10.176;2023-06-26T10:31:54;13.85;;;10.73;;
17201;SDS011;8717;53.588;10.176;2023-06-26T10:34:23;13.10;;;11.75;;
17201;SDS011;8717;53.588;10.176;2023-06-26T10:36:59;13.65;;;11.13;;
17201;SDS011;8717;53.588;10.176;2023-06-26T10:39:27;28.10;;;15.30;;
17201;SDS011;8717;53.588;10.176;2023-06-26T10:42:08;14.95;;;12.35;;
17201;SDS011;8717;53.588;10.176;2023-06-26T10:44:39;15.57;;;12.05;;
17201;SDS011;8717;53.588;10.176;2023-06-26T10:47:08;14.27;;;9.80;;
17201;SDS011;8717;53.588;10.176;2023-06-26T10:49:35;10.48;;;8.68;;
17201;SDS011;8717;53.588;10.176;2023-06-26T10:52:06;11.30;;;8.45;;
17201;SDS011;8717;53.588;10.176;2023-06-26T10:54:33;10.77;;;7.32;;
17201;SDS011;8717;53.588;10.176;2023-06-26T10:57:01;8.90;;;7.50;;
17201;SDS011;8717;53.588;10.176;2023-06-26T10:59:29;8.90;;;7.45;;
17201;SDS011;8717;53.588;10.176;2023-06-26T11:01:57;8.85;;;7.22;;
17201;SDS011;8717;53.588;10.176;2023-06-26T11:04:38;7.53;;;6.53;;
17201;SDS011;8717;53.588;10.176;2023-06-26T11:07:16;6.82;;;5.90;;
17201;SDS011;8717;53.588;10.176;2023-06-26T11:09:54;10.40;;;6.28;;
17201;SDS011;8717;53.588;10.176;2023-06-26T11:12:35;7.05;;;5.88;;
17201;SDS011;8717;53.588;10.176;2023-06-26T11:15:03;7.57;;;6.07;;
17201;SDS011;8717;53.588;10.176;2023-06-26T11:17:30;6.82;;;6.13;;
17201;SDS011;8717;53.588;10.176;2023-06-26T11:19:57;7.30;;;6.60;;
17201;SDS011;8717;53.588;10.176;2023-06-26T11:22:26;8.27;;;6.40;;
17201;SDS011;8717;53.588;10.176;2023-06-26T11:24:53;7.60;;;6.80;;
17201;SDS011;8717;53.588;10.176;2023-06-26T11:27:20;8.73;;;7.45;;
17201;SDS011;8717;53.588;10.176;2023-06-26T11:29:49;9.07;;;7.25;;
17201;SDS011;8717;53.588;10.176;2023-06-26T11:32:16;12.75;;;8.45;;
17201;SDS011;8717;53.588;10.176;2023-06-26T11:34:42;10.73;;;7.57;;
17201;SDS011;8717;53.588;10.176;2023-06-26T11:37:09;13.27;;;7.47;;
17201;SDS011;8717;53.588;10.176;2023-06-26T11:39:38;11.52;;;7.82;;
17201;SDS011;8717;53.588;10.176;2023-06-26T11:42:05;9.35;;;6.43;;
17201;SDS011;8717;53.588;10.176;2023-06-26T11:44:31;11.35;;;5.68;;
17201;SDS011;8717;53.588;10.176;2023-06-26T11:47:05;9.18;;;5.35;;
17201;SDS011;8717;53.588;10.176;2023-06-26T11:49:32;10.93;;;5.28;;
17201;SDS011;8717;53.588;10.176;2023-06-26T11:51:59;8.73;;;4.85;;
17201;SDS011;8717;53.588;10.176;2023-06-26T11:54:28;10.60;;;5.13;;
17201;SDS011;8717;53.588;10.176;2023-06-26T11:56:57;11.68;;;5.18;;
17201;SDS011;8717;53.588;10.176;2023-06-26T11:59:32;10.20;;;5.35;;
17201;SDS011;8717;53.588;10.176;2023-06-26T12:02:00;9.85;;;4.80;;
17201;SDS011;8717;53.588;10.176;2023-06-26T12:04:31;8.90;;;4.20;;
17201;SDS011;8717;53.588;10.176;2023-06-26T12:06:59;11.38;;;4.57;;
17201;SDS011;8717;53.588;10.176;2023-06-26T12:09:29;11.07;;;3.97;;
17201;SDS011;8717;53.588;10.176;2023-06-26T12:11:59;7.60;;;3.40;;
17201;SDS011;8717;53.588;10.176;2023-06-26T12:14:27;9.45;;;3.25;;
17201;SDS011;8717;53.588;10.176;2023-06-26T12:16:54;8.43;;;2.85;;
17201;SDS011;8717;53.588;10.176;2023-06-26T12:19:24;9.60;;;2.55;;
17201;SDS011;8717;53.588;10.176;2023-06-26T12:21:52;7.35;;;2.50;;
17201;SDS011;8717;53.588;10.176;2023-06-26T12:24:21;9.35;;;2.67;;
17201;SDS011;8717;53.588;10.176;2023-06-26T12:26:50;8.10;;;2.85;;
17201;SDS011;8717;53.588;10.176;2023-06-26T12:29:20;7.80;;;2.50;;
17201;SDS011;8717;53.588;10.176;2023-06-26T12:31:51;8.82;;;2.75;;
17201;SDS011;8717;53.588;10.176;2023-06-26T12:34:19;5.78;;;2.63;;
17201;SDS011;8717;53.588;10.176;2023-06-26T12:36:48;6.80;;;2.58;;
17201;SDS011;8717;53.588;10.176;2023-06-26T12:39:16;9.38;;;3.00;;
17201;SDS011;8717;53.588;10.176;2023-06-26T12:41:44;6.95;;;2.75;;
17201;SDS011;8717;53.588;10.176;2023-06-26T12:44:19;7.47;;;2.50;;
17201;SDS011;8717;53.588;10.176;2023-06-26T12:46:47;7.65;;;2.95;;
17201;SDS011;8717;53.588;10.176;2023-06-26T12:49:15;7.78;;;2.83;;
17201;SDS011;8717;53.588;10.176;2023-06-26T12:51:43;5.13;;;2.13;;
17201;SDS011;8717;53.588;10.176;2023-06-26T12:54:09;5.32;;;2.25;;
17201;SDS011;8717;53.588;10.176;2023-06-26T12:56:36;7.28;;;2.38;;
17201;SDS011;8717;53.588;10.176;2023-06-26T12:59:03;9.05;;;2.65;;
17201;SDS011;8717;53.588;10.176;2023-06-26T13:01:31;4.53;;;2.15;;
17201;SDS011;8717;53.588;10.176;2023-06-26T13:03:57;6.45;;;2.35;;
17201;SDS011;8717;53.588;10.176;2023-06-26T13:06:24;4.72;;;2.28;;
17201;SDS011;8717;53.588;10.176;2023-06-26T13:08:51;5.15;;;1.80;;
17201;SDS011;8717;53.588;10.176;2023-06-26T13:11:18;8.63;;;2.40;;
17201;SDS011;8717;53.588;10.176;2023-06-26T13:13:46;4.18;;;2.03;;
17201;SDS011;8717;53.588;10.176;2023-06-26T13:16:13;7.40;;;2.35;;
17201;SDS011;8717;53.588;10.176;2023-06-26T13:18:41;4.53;;;2.35;;
17201;SDS011;8717;53.588;10.176;2023-06-26T13:21:07;4.93;;;2.10;;
17201;SDS011;8717;53.588;10.176;2023-06-26T13:23:34;7.20;;;2.50;;
17201;SDS011;8717;53.588;10.176;2023-06-26T13:26:01;7.85;;;2.30;;
17201;SDS011;8717;53.588;10.176;2023-06-26T13:28:28;5.50;;;2.13;;
17201;SDS011;8717;53.588;10.176;2023-06-26T13:30:54;5.00;;;2.20;;
17201;SDS011;8717;53.588;10.176;2023-06-26T13:33:21;4.03;;;1.60;;
17201;SDS011;8717;53.588;10.176;2023-06-26T13:35:51;5.30;;;2.30;;
17201;SDS011;8717;53.588;10.176;2023-06-26T13:38:19;5.40;;;2.47;;
17201;SDS011;8717;53.588;10.176;2023-06-26T13:40:49;2.95;;;1.70;;
17201;SDS011;8717;53.588;10.176;2023-06-26T13:43:16;4.93;;;2.15;;
17201;SDS011;8717;53.588;10.176;2023-06-26T13:45:43;5.90;;;2.10;;
17201;SDS011;8717;53.588;10.176;2023-06-26T13:48:10;4.90;;;1.95;;
17201;SDS011;8717;53.588;10.176;2023-06-26T13:50:36;3.42;;;1.63;;
17201;SDS011;8717;53.588;10.176;2023-06-26T13:53:07;3.60;;;1.95;;
17201;SDS011;8717;53.588;10.176;2023-06-26T13:55:34;3.33;;;1.92;;
17201;SDS011;8717;53.588;10.176;2023-06-26T13:58:03;6.18;;;1.92;;
17201;SDS011;8717;53.588;10.176;2023-06-26T14:00:30;5.30;;;2.00;;
17201;SDS011;8717;53.588;10.176;2023-06-26T14:02:58;4.65;;;2.03;;
17201;SDS011;8717;53.588;10.176;2023-06-26T14:05:25;4.85;;;1.77;;
17201;SDS011;8717;53.588;10.176;2023-06-26T14:07:52;3.67;;;1.67;;
17201;SDS011;8717;53.588;10.176;2023-06-26T14:10:20;6.57;;;1.90;;
17201;SDS011;8717;53.588;10.176;2023-06-26T14:12:47;3.85;;;1.80;;
17201;SDS011;8717;53.588;10.176;2023-06-26T14:15:14;4.55;;;1.73;;
17201;SDS011;8717;53.588;10.176;2023-06-26T14:17:41;2.88;;;1.38;;
17201;SDS011;8717;53.588;10.176;2023-06-26T14:20:08;4.68;;;2.03;;
17201;SDS011;8717;53.588;10.176;2023-06-26T14:22:37;2.97;;;1.73;;
17201;SDS011;8717;53.588;10.176;2023-06-26T14:25:05;5.00;;;1.75;;
17201;SDS011;8717;53.588;10.176;2023-06-26T14:27:33;4.60;;;1.65;;
17201;SDS011;8717;53.588;10.176;2023-06-26T14:30:00;2.80;;;1.60;;
17201;SDS011;8717;53.588;10.176;2023-06-26T14:32:27;4.00;;;1.65;;
17201;SDS011;8717;53.588;10.176;2023-06-26T14:34:54;3.25;;;1.60;;
17201;SDS011;8717;53.588;10.176;2023-06-26T14:37:21;2.40;;;1.45;;
17201;SDS011;8717;53.588;10.176;2023-06-26T14:39:47;4.13;;;1.50;;
17201;SDS011;8717;53.588;10.176;2023-06-26T14:42:14;3.22;;;1.60;;
17201;SDS011;8717;53.588;10.176;2023-06-26T14:44:42;3.20;;;1.88;;
17201;SDS011;8717;53.588;10.176;2023-06-26T14:47:11;5.18;;;1.70;;
17201;SDS011;8717;53.588;10.176;2023-06-26T14:49:38;3.00;;;1.55;;
17201;SDS011;8717;53.588;10.176;2023-06-26T14:52:05;2.30;;;1.40;;